METAR Data
IDs: Format: Raw Decoded Include TAF

Data at: 2050 UTC 19 May 2019

PFKW 191856Z AUTO VRB04KT 10SM CLR 10/04 A2973 RMK AO2 SLP066 T01000044
PFKW 191756Z AUTO 03005KT 10SM SCT095 09/05 A2974 RMK AO2 SLP070 60001 T00890050 10089 20044 58004
PFKW 191456Z AUTO 36004KT 10SM BKN085 06/04 A2975 RMK AO2 SLP075 60001 T00560044 56009
PFKW 191356Z AUTO 34007KT 10SM FEW085 06/04 A2976 RMK AO2 SLP077 P0001 T00560044
PFKW 191256Z AUTO 31005KT 10SM BKN042 BKN060 BKN090 06/05 A2977 RMK AO2 RAE49 SLP080 P0000 T00560050
PFKW 191156Z AUTO 27004KT 10SM -RA BKN042 OVC060 05/04 A2978 RMK AO2 RAB24 SLP084 P0000 60000 T00500044 10094 20044 58000
PFKW 191056Z AUTO 29005KT 10SM BKN046 BKN060 06/04 A2979 RMK AO2 SLP086 T00560044
PFKW 190956Z AUTO 26004KT 10SM CLR 05/03 A2978 RMK AO2 SLP085 T00500033
PFKW 190856Z AUTO 32003KT 10SM CLR 07/05 A2978 RMK AO2 SLP084 T00720050 401280033 50005
PFKW 190756Z AUTO 32003KT 10SM FEW110 08/04 A2978 RMK AO2 SLP085 T00780039
PFKW 190656Z AUTO 33005KT 10SM FEW090 BKN110 09/04 A2978 RMK AO2 SLP084 T00890039
PFKW 190556Z AUTO 32005KT 10SM OVC075 09/06 A2977 RMK AO2 RAB02E38 SLP080 P0000 60000 T00940061 10128 20089 58002
PFKW 190456Z AUTO 09007KT 10SM OVC034 09/06 A2978 RMK AO2 SLP084 T00940056
PFKW 190356Z AUTO 31008KT 10SM BKN080 12/03 A2978 RMK AO2 SLP082 T01170033
PFKW 190256Z AUTO 28008KT 10SM FEW055 BKN075 BKN090 11/03 A2977 RMK AO2 SLP081 T01110028 55001
PFKW 190156Z AUTO 26011KT 10SM BKN060 12/03 A2977 RMK AO2 SLP081 T01220028
PFKW 190056Z AUTO VRB06KT 10SM FEW042 SCT049 BKN070 12/03 A2977 RMK AO2 SLP081 T01220028
PFKW 182356Z AUTO 29004KT 10SM FEW040 BKN060 12/03 A2978 RMK AO2 SLP082 T01170033 10122 20056 57005
PFKW 182256Z AUTO 28006KT 10SM SCT033 10/03 A2978 RMK AO2 SLP084 T01000033
PFKW 182156Z AUTO 13005KT 10SM CLR 10/04 A2979 RMK AO2 SLP086 T01000039
PFKW 182056Z AUTO 00000KT 10SM FEW020 08/03 A2979 RMK AO2 SLP087 T00830033 51002
PFKW 182020Z AUTO 00000KT 10SM BKN018 07/03 A2979 RMK AO2
PFKW 181956Z AUTO 13005KT 10SM FEW018 07/03 A2979 RMK AO2 SLP086 T00720028
PFKW 181924Z AUTO 13005KT 10SM FEW016 07/02 A2978 RMK AO2
PFKW 181756Z AUTO 17005KT 10SM OVC014 06/02 A2978 RMK AO2 SLP083 T00560022 10056 20039 53009
PFKW 181656Z AUTO 16005KT 10SM OVC014 05/02 A2976 RMK AO2 SLP079 T00500022
PFKW 181556Z AUTO 21004KT 10SM OVC010 04/03 A2976 RMK AO2 SLP076 T00440033
PFKW 181456Z AUTO 20004KT 10SM SCT010 OVC015 04/03 A2975 RMK AO2 SLP073 T00390028 51012
PFKW 181437Z AUTO 16004KT 10SM OVC015 04/03 A2975 RMK AO2
PFKW 181356Z AUTO 20006KT 10SM OVC011 04/03 A2974 RMK AO2 SLP070 T00390028
PFKW 181256Z AUTO 19007KT 10SM OVC006 04/03 A2973 RMK AO2 SLP067 T00390028
PFKW 181056Z AUTO 20010KT 10SM OVC008 04/03 A2970 RMK AO2 SLP057 T00390028
PFKW 181010Z AUTO 18010KT 10SM OVC008 04/03 A2969 RMK AO2
PFKW 180956Z AUTO 18007KT 10SM OVC010 03/03 A2969 RMK AO2 SLP053 T00330028
PFKW 180939Z AUTO 19008KT 10SM BKN010 BKN027 03/03 A2968 RMK AO2
PFKW 180856Z AUTO 18007KT 10SM CLR 04/03 A2967 RMK AO2 SLP046 T00390028 401170039 53021